Hlavní strana
METAR-TAF:

METAR-TAF

Letiště :

Letiště Vaasa

Vaasa, Finsko

zeměpisná šířka: 63-03N, zeměpisná délka: 021-46E, výška: 4 m

Aktuální stav počasí

Zpráva byla vytvořena před 34 minutami, v 12:50 UTC
Jihovýchodní vítr 6 kt
Teplota 3°C
Vlhkost vzduchu 93%
Tlak 1031 hPa
Viditelnost 10 km a více
Zataženo ve výšce 800 ft

METAR: EFVA 211250Z AUTO 13006KT 9999 OVC008 03/02 Q1031

Čas: 15:24 (13:24 UTC)

Předpověď počasí

Zpráva byla vytvořena před 2 hodinami a 0 minutami, v 11:24 UTC
Předpověď platná od 21 v 12 UTC do 22 v 12 UTC
Jihovýchodní vítr 4 kt
Viditelnost: 8000 m
Oblačno až skoro zataženo ve výšce 1100 ft
Dočasný
od 21 v 12 UTC do 21 v 24 UTC
Oblačno až skoro zataženo ve výšce 700 ft
Pravděpodobnost 30% :
Dočasný
od 21 v 12 UTC do 21 v 22 UTC
Viditelnost: 2500 m
kouřmo

TAF: EFVA 211124Z 2112/2212 14004KT 8000 BKN011 TEMPO 2112/2124 BKN007 PROB30 TEMPO 2112/2122 2500 BR

Stav a předpovědi počasí z více než 4 000 letišť (zprávy METAR a TAF).

Červené a žluté tečky na mapě představují dostupné meteorologické stanice.

Když kurzor umístíte na tečku, zobrazí se název stanice.

Pak kliknutím zobrazíte stav a předpověď počasí.

Chcete-li změnit mapu, kliknutím na zelené tlačítko se znaménkem +mapu přiblížíte, kliknutím na zelené tlačítko se znaménkem – mapu oddálíte a kliknutím na zelené šipky přejdete na sousední mapy.


METAR-TAF: